Time;durP1;ratioP1;P1;durP2;ratioP2;P2;SDS_P1;SDS_P2;PMS_P1;PMS_P2;Temp;Humidity;BMP_temperature;BMP_pressure;BME280_temperature;BME280_humidity;BME280_pressure;Samples;Min_cycle;Max_cycle;Signal;HPM_P1;HPM_P2
2022/05/29 00:01:52;;;;;;;5.45;4.95;;;;;;;21.99;71.92;100832.00;5060270;28;20025;-87
2022/05/29 00:04:19;;;;;;;5.43;4.28;;;;;;;21.83;72.11;100794.66;5052525;28;20032;-88
2022/05/29 00:06:48;;;;;;;5.30;4.80;;;;;;;21.91;71.92;100808.91;5066240;28;20031;-87
2022/05/29 00:09:19;;;;;;;6.07;4.75;;;;;;;22.13;71.99;100851.63;5063925;28;20024;-86
2022/05/29 00:11:46;;;;;;;4.60;4.20;;;;;;;21.95;71.92;100836.41;5070649;28;20475;-88
2022/05/29 00:14:12;;;;;;;5.05;4.60;;;;;;;22.09;72.11;100871.97;5064596;28;20052;-87
2022/05/29 00:16:38;;;;;;;6.70;4.97;;;;;;;22.03;71.56;100863.94;5060435;28;20020;-88
2022/05/29 00:19:03;;;;;;;5.70;5.18;;;;;;;22.06;71.65;100863.97;5062015;28;20037;-88
2022/05/29 00:21:32;;;;;;;6.03;5.00;;;;;;;21.78;71.32;100808.78;5050896;28;20429;-87
2022/05/29 00:23:59;;;;;;;5.72;4.38;;;;;;;22.02;71.96;100853.31;5058351;28;20571;-89
2022/05/29 00:26:25;;;;;;;5.90;4.95;;;;;;;21.94;71.61;100834.63;5069366;28;20477;-88
2022/05/29 00:28:51;;;;;;;6.05;4.68;;;;;;;21.82;71.89;100822.09;5061123;28;20553;-89
2022/05/29 00:31:17;;;;;;;7.95;5.05;;;;;;;21.77;71.44;100804.34;5051977;28;20110;-88
2022/05/29 00:33:42;;;;;;;6.63;4.63;;;;;;;22.13;71.41;100854.28;5036733;28;20479;-88
2022/05/29 00:36:11;;;;;;;;;;;;;;;22.14;71.30;100854.28;5067452;28;20041;-88
2022/05/29 00:38:39;;;;;;;5.38;4.50;;;;;;;22.08;71.29;100856.03;5067716;28;19912;-88
2022/05/29 00:41:26;;;;;;;6.10;5.45;;;;;;;22.10;71.04;100847.16;5071066;28;20115;-88
2022/05/29 00:44:18;;;;;;;5.53;4.55;;;;;;;22.05;71.29;100840.91;5064119;28;20028;-88
2022/05/29 00:46:47;;;;;;;6.25;5.20;;;;;;;22.07;71.13;100840.94;5053224;28;20485;-88
2022/05/29 00:49:14;;;;;;;6.15;5.30;;;;;;;22.02;71.34;100838.22;5056093;28;20043;-88
2022/05/29 00:51:58;;;;;;;5.75;5.15;;;;;;;22.02;71.20;100816.97;5060174;28;20059;-88
2022/05/29 00:54:26;;;;;;;6.53;5.10;;;;;;;22.03;71.30;100816.06;5070405;28;20109;-88
2022/05/29 00:56:52;;;;;;;5.95;5.22;;;;;;;21.89;71.06;100796.47;5084099;28;20033;-86
2022/05/29 00:59:26;;;;;;;5.97;4.78;;;;;;;22.03;71.01;100813.41;5062240;28;20086;-86
2022/05/29 01:01:53;;;;;;;6.80;4.70;;;;;;;22.01;71.42;100812.50;5070206;28;20024;-88
2022/05/29 01:04:20;;;;;;;6.15;5.00;;;;;;;22.04;71.06;100819.63;5062043;28;20402;-87
2022/05/29 01:06:47;;;;;;;6.55;5.20;;;;;;;22.03;70.98;100824.03;5079911;28;20035;-88
2022/05/29 01:09:13;;;;;;;5.63;5.03;;;;;;;21.94;70.76;100822.22;5053113;28;20410;-87
2022/05/29 01:12:08;;;;;;;5.93;5.18;;;;;;;22.04;70.80;100835.59;5068810;28;20464;-87
2022/05/29 01:15:01;;;;;;;6.70;5.28;;;;;;;22.02;70.76;100843.56;5059781;28;20132;-87
2022/05/29 01:17:38;;;;;;;5.30;4.80;;;;;;;21.98;70.80;100835.53;5070193;28;20029;-88
2022/05/29 01:20:22;;;;;;;9.85;4.97;;;;;;;22.01;70.72;100838.22;5056877;28;20060;-87
2022/05/29 01:22:54;;;;;;;5.43;4.93;;;;;;;22.00;70.68;100844.44;5058142;28;20057;-87
2022/05/29 01:25:58;;;;;;;6.03;5.13;;;;;;;22.00;70.56;100836.44;5060319;28;20027;-87
2022/05/29 01:28:35;;;;;;;7.18;5.07;;;;;;;21.95;70.74;100834.63;5067909;28;20029;-88
2022/05/29 01:31:13;;;;;;;5.20;4.70;;;;;;;21.84;70.91;100806.16;5051121;28;20517;-88
2022/05/29 01:33:43;;;;;;;5.60;5.05;;;;;;;21.97;70.80;100842.63;5080451;28;20025;-87
2022/05/29 01:36:14;;;;;;;5.40;4.90;;;;;;;21.87;70.70;100835.47;5066700;28;20024;-87
2022/05/29 01:39:06;;;;;;;5.97;4.93;;;;;;;21.96;70.58;100848.81;5054495;28;20090;-87
2022/05/29 01:41:48;;;;;;;5.28;4.70;;;;;;;21.88;70.43;100835.44;5062170;28;20063;-87
2022/05/29 01:44:41;;;;;;;5.55;5.00;;;;;;;21.91;70.34;100838.16;5054036;28;20499;-88
2022/05/29 01:47:13;;;;;;;5.20;4.70;;;;;;;21.80;70.73;100830.94;5018907;28;20509;-88
2022/05/29 01:49:44;;;;;;;5.43;4.55;;;;;;;21.94;70.44;100856.78;5066199;28;20020;-88
2022/05/29 01:52:41;;;;;;;7.05;5.20;;;;;;;21.95;70.30;100844.41;5061428;28;21660;-86
2022/05/29 01:55:29;;;;;;;5.72;4.93;;;;;;;21.96;70.23;100840.84;5068622;28;20490;-87
2022/05/29 01:58:09;;;;;;;5.95;4.78;;;;;;;21.81;70.32;100820.34;5064632;28;20031;-86
2022/05/29 02:00:35;;;;;;;5.97;5.15;;;;;;;21.90;70.71;100835.47;5063788;28;20028;-87
2022/05/29 02:03:11;;;;;;;5.20;4.70;;;;;;;21.90;70.55;100849.66;5064643;28;20120;-87
2022/05/29 02:05:59;;;;;;;6.28;4.78;;;;;;;21.90;70.21;100846.09;5064125;28;20028;-87
2022/05/29 02:08:49;;;;;;;7.15;5.32;;;;;;;21.86;70.19;100849.59;5064526;28;20032;-87
2022/05/29 02:11:25;;;;;;;5.57;4.93;;;;;;;21.90;70.73;100865.59;5060255;28;20044;-88
2022/05/29 02:13:57;;;;;;;5.63;4.88;;;;;;;21.91;70.27;100871.81;5059922;28;20037;-87
2022/05/29 02:16:43;;;;;;;5.18;4.57;;;;;;;21.91;70.51;100859.41;5061502;28;20067;-87
2022/05/29 02:19:19;;;;;;;5.53;4.97;;;;;;;21.91;70.24;100856.75;5056426;28;20097;-88
2022/05/29 02:21:49;;;;;;;5.28;4.75;;;;;;;21.90;70.28;100862.06;5064985;28;20031;-88
2022/05/29 02:24:26;;;;;;;5.20;4.70;;;;;;;21.79;70.16;100838.03;5061586;28;20056;-87
2022/05/29 02:26:55;;;;;;;6.20;4.95;;;;;;;21.75;70.18;100837.09;5050353;28;20032;-87
2022/05/29 02:29:21;;;;;;;5.65;4.93;;;;;;;21.72;70.32;100836.22;5058999;28;20115;-87
2022/05/29 02:32:05;;;;;;;6.45;5.05;;;;;;;21.86;70.41;100868.22;5052180;28;20118;-88
2022/05/29 02:34:46;;;;;;;5.35;4.82;;;;;;;21.87;70.26;100862.91;5060752;28;20090;-86
2022/05/29 02:37:26;;;;;;;6.72;4.82;;;;;;;21.87;70.09;100862.03;5054887;28;20032;-86
2022/05/29 02:40:09;;;;;;;5.72;4.90;;;;;;;21.77;69.94;100845.09;5072202;28;20033;-86
2022/05/29 02:42:54;;;;;;;5.30;4.80;;;;;;;21.66;69.86;100825.50;5061937;28;20031;-86
2022/05/29 02:45:32;;;;;;;5.07;4.57;;;;;;;21.90;69.87;100862.06;5056049;28;20028;-86
2022/05/29 02:48:01;;;;;;;6.43;4.70;;;;;;;21.90;69.85;100864.72;5078836;28;20033;-88
2022/05/29 02:50:35;;;;;;;5.45;4.93;;;;;;;21.87;70.03;100870.91;5071137;28;20032;-87
2022/05/29 02:53:07;;;;;;;6.72;5.30;;;;;;;21.65;70.07;100839.66;5071583;28;20073;-88
2022/05/29 02:55:33;;;;;;;5.07;4.53;;;;;;;21.68;70.18;100840.59;5075818;28;20020;-87
2022/05/29 02:58:02;;;;;;;6.63;4.82;;;;;;;21.75;70.03;100857.47;5071708;28;20028;-86
2022/05/29 03:00:37;;;;;;;7.03;4.53;;;;;;;21.87;70.00;100873.56;5070896;28;20115;-86
2022/05/29 03:03:12;;;;;;;6.03;4.72;;;;;;;21.85;70.14;100875.31;5055817;28;20086;-87
2022/05/29 03:06:03;;;;;;;6.20;5.38;;;;;;;21.79;69.62;100877.03;5072401;28;20027;-86
2022/05/29 03:08:35;;;;;;;6.15;5.55;;;;;;;21.87;69.76;100892.16;5071328;28;20043;-87
2022/05/29 03:11:10;;;;;;;7.13;4.90;;;;;;;21.88;69.69;100896.59;5072210;28;20486;-87
2022/05/29 03:13:36;;;;;;;6.82;5.10;;;;;;;21.87;69.64;100892.16;5088423;28;20051;-87
2022/05/29 03:16:20;;;;;;;6.32;4.88;;;;;;;21.87;70.21;100894.81;5073391;28;20032;-87
2022/05/29 03:18:58;;;;;;;7.32;5.32;;;;;;;21.87;69.88;100896.59;5067670;28;20028;-87
2022/05/29 03:21:45;;;;;;;7.03;5.07;;;;;;;21.76;69.91;100880.56;5071632;28;20116;-88
2022/05/29 03:24:22;;;;;;;5.25;4.85;;;;;;;21.83;70.11;100910.75;5063677;28;20020;-87
2022/05/29 03:27:06;;;;;;;6.30;5.50;;;;;;;21.86;70.02;100910.75;5072265;28;20024;-87
2022/05/29 03:29:59;;;;;;;5.70;5.00;;;;;;;21.86;70.08;100906.31;5069885;28;20110;-87
2022/05/29 03:32:25;;;;;;;6.40;5.25;;;;;;;21.85;69.93;100909.88;5071148;28;20032;-87
2022/05/29 03:34:53;;;;;;;5.82;5.22;;;;;;;21.78;70.44;100909.78;5051536;28;20020;-87
2022/05/29 03:37:18;;;;;;;6.45;5.32;;;;;;;21.83;70.06;100913.41;5065943;28;20020;-87
2022/05/29 03:39:44;;;;;;;7.35;5.38;;;;;;;21.72;69.96;100890.25;5054991;28;20035;-87
2022/05/29 03:42:10;;;;;;;6.18;5.32;;;;;;;21.86;70.17;100910.75;5071278;28;20056;-87
2022/05/29 03:44:36;;;;;;;;;;;;;;;21.86;70.12;100908.09;5069142;28;20025;-89
2022/05/29 03:47:02;;;;;;;8.15;5.78;;;;;;;21.74;70.38;100890.28;5054484;28;20479;-87
2022/05/29 03:49:28;;;;;;;7.78;5.60;;;;;;;21.80;70.42;100902.72;5054280;28;20043;-89
2022/05/29 03:51:54;;;;;;;8.65;5.57;;;;;;;21.83;70.21;100905.41;5052393;28;20043;-90
2022/05/29 03:54:21;;;;;;;8.07;5.68;;;;;;;21.84;70.31;100910.72;5070627;28;20024;-90
2022/05/29 03:56:47;;;;;;;9.32;6.00;;;;;;;21.79;70.29;100893.84;5047536;28;20529;-89
2022/05/29 03:59:24;;;;;;;7.97;5.55;;;;;;;21.76;70.33;100893.84;5065516;28;20029;-89
2022/05/29 04:01:50;;;;;;;6.43;5.38;;;;;;;21.81;70.61;100905.41;5084602;28;20012;-87
2022/05/29 04:04:18;;;;;;;7.63;5.50;;;;;;;21.85;70.44;100909.88;5094818;28;20012;-90
2022/05/29 04:06:44;;;;;;;6.68;5.70;;;;;;;21.72;70.59;100890.25;5078736;28;20012;-90
2022/05/29 04:12:09;;;;;;;6.25;5.25;;;;;;;21.75;70.47;100887.59;5070721;28;20103;-90
2022/05/29 04:14:42;;;;;;;6.20;5.60;;;;;;;21.86;70.49;100922.28;5049871;28;20049;-90
2022/05/29 04:17:13;;;;;;;6.15;5.55;;;;;;;21.90;70.52;100933.84;5084775;28;20456;-91
2022/05/29 04:19:39;;;;;;;5.57;4.97;;;;;;;21.73;70.46;100920.38;5054751;28;20024;-91
2022/05/29 04:22:21;;;;;;;5.97;5.38;;;;;;;21.83;70.69;100937.31;5064455;28;20516;-89
2022/05/29 04:24:46;;;;;;;6.20;5.60;;;;;;;21.79;70.77;100939.03;5052336;28;20090;-88
2022/05/29 04:27:14;;;;;;;6.03;5.05;;;;;;;21.88;70.63;100952.44;5071479;28;20025;-89
2022/05/29 04:29:40;;;;;;;7.25;5.88;;;;;;;21.89;70.78;100963.97;5087707;28;20028;-89
2022/05/29 04:34:56;;;;;;;5.40;4.88;;;;;;;21.91;70.54;100976.41;5065831;28;19927;-89
2022/05/29 04:37:22;;;;;;;6.68;5.60;;;;;;;21.84;70.62;100974.53;5061478;28;20033;-89
2022/05/29 04:39:48;;;;;;;6.57;5.18;;;;;;;21.82;70.75;100978.94;5078424;28;20033;-89
2022/05/29 04:42:13;;;;;;;6.68;5.68;;;;;;;21.80;70.86;100972.75;5068465;28;20399;-88
2022/05/29 04:44:39;;;;;;;6.40;5.13;;;;;;;21.80;70.74;100971.84;5056131;28;20029;-89
2022/05/29 04:47:04;;;;;;;6.85;5.30;;;;;;;21.83;70.90;100978.09;5064288;28;20028;-90
2022/05/29 04:49:31;;;;;;;5.97;5.38;;;;;;;21.67;70.91;100950.44;5061398;28;20478;-89
2022/05/29 04:51:57;;;;;;;7.13;5.55;;;;;;;21.77;71.04;100962.06;5058633;28;20032;-89
2022/05/29 04:54:24;;;;;;;6.53;5.28;;;;;;;21.86;70.92;100969.25;5074594;28;20028;-89
2022/05/29 04:56:50;;;;;;;6.00;5.40;;;;;;;21.90;71.00;100989.69;5060093;28;20043;-89
2022/05/29 04:59:16;;;;;;;6.90;5.20;;;;;;;21.89;71.13;100991.44;5056752;28;20464;-89
2022/05/29 05:01:42;;;;;;;6.05;5.45;;;;;;;21.68;70.97;100960.19;5048560;28;20063;-90
2022/05/29 05:04:07;;;;;;;6.57;5.80;;;;;;;21.83;71.13;100999.34;5052677;28;20024;-90
2022/05/29 05:06:34;;;;;;;5.97;5.38;;;;;;;21.87;70.99;100998.53;5052929;28;20482;-90
2022/05/29 05:09:00;;;;;;;6.85;5.80;;;;;;;21.77;71.07;100993.97;5070230;28;20031;-90
2022/05/29 05:11:27;;;;;;;6.00;5.40;;;;;;;21.68;71.34;100991.22;5053767;28;20059;-90
2022/05/29 05:13:55;;;;;;;6.53;5.38;;;;;;;21.90;71.17;101025.13;5052471;28;20693;-91
2022/05/29 05:16:22;;;;;;;5.63;4.82;;;;;;;21.58;71.24;100968.06;5066505;28;20044;-90
2022/05/29 05:18:49;;;;;;;5.78;5.25;;;;;;;21.81;71.18;101014.41;5062271;28;20559;-90
2022/05/29 05:21:15;;;;;;;6.63;5.43;;;;;;;21.59;71.68;100999.03;5064242;28;20072;-90
2022/05/29 05:23:43;;;;;;;6.18;5.57;;;;;;;21.88;71.26;101042.81;5037501;28;20690;-90
2022/05/29 05:26:13;;;;;;;6.63;5.78;;;;;;;21.81;71.36;101040.09;5040450;28;20102;-88
2022/05/29 05:28:39;;;;;;;8.02;5.47;;;;;;;21.83;71.37;101046.31;5063782;28;20024;-88
2022/05/29 05:31:05;;;;;;;8.27;5.30;;;;;;;21.77;71.74;101043.59;5055961;28;20028;-91
2022/05/29 05:33:31;;;;;;;6.05;5.45;;;;;;;21.85;71.67;101058.75;5036037;28;20036;-90
2022/05/29 05:35:57;;;;;;;6.30;5.65;;;;;;;21.78;71.80;101043.63;5042858;28;20028;-90
2022/05/29 05:38:23;;;;;;;5.93;5.32;;;;;;;21.71;71.35;101025.78;5056030;28;20479;-85
2022/05/29 05:40:48;;;;;;;5.35;4.85;;;;;;;21.84;71.64;101056.06;5057024;28;20119;-87
2022/05/29 05:43:14;;;;;;;5.97;5.38;;;;;;;21.79;71.46;101044.50;5055459;28;20481;-87
2022/05/29 05:45:41;;;;;;;6.15;5.28;;;;;;;21.93;71.45;101070.38;5068642;28;20025;-88
2022/05/29 05:48:07;;;;;;;6.10;5.50;;;;;;;21.92;71.79;101076.56;5061419;28;20020;-87
2022/05/29 05:50:33;;;;;;;6.10;5.47;;;;;;;21.85;71.61;101064.06;5064098;28;20029;-88
2022/05/29 05:52:59;;;;;;;;;;;;;;;21.94;71.47;101081.91;5069998;28;20055;-87
2022/05/29 05:55:25;;;;;;;6.60;5.78;;;;;;;21.73;71.68;101040.00;5067664;28;20542;-87
2022/05/29 05:57:53;;;;;;;8.85;5.63;;;;;;;21.94;71.68;101071.28;5069278;28;20039;-87
2022/05/29 06:00:19;;;;;;;6.57;5.85;;;;;;;21.68;71.53;101017.78;5069118;28;20500;-86
2022/05/29 06:02:45;;;;;;;5.72;5.15;;;;;;;21.95;71.83;101076.63;5069454;28;20052;-87
2022/05/29 06:05:12;;;;;;;8.30;5.85;;;;;;;21.90;71.56;101049.06;5062924;28;21532;-86
2022/05/29 06:07:38;;;;;;;6.55;5.47;;;;;;;21.57;71.85;100992.81;5047022;28;20502;-84
2022/05/29 06:10:04;;;;;;;6.55;5.82;;;;;;;21.96;71.67;101054.44;5055069;28;20063;-83
2022/05/29 06:12:49;;;;;;;5.95;5.35;;;;;;;21.97;71.79;101052.72;5063778;28;20033;-83
2022/05/29 06:15:15;;;;;;;6.43;5.35;;;;;;;21.86;71.77;101033.94;5072678;28;20116;-83
2022/05/29 06:17:41;;;;;;;6.13;5.53;;;;;;;21.95;71.99;101047.38;5078107;28;20111;-83
2022/05/29 06:20:07;;;;;;;;;;;;;;;22.00;71.86;101038.56;5069609;28;20091;-84
2022/05/29 06:22:37;;;;;;;6.30;5.53;;;;;;;22.00;71.71;101049.19;5056298;28;19909;-84
2022/05/29 06:25:03;;;;;;;8.07;5.97;;;;;;;21.94;71.69;101040.25;5070595;28;20025;-84
2022/05/29 06:27:29;;;;;;;6.30;5.70;;;;;;;21.90;71.85;101032.22;5062219;28;20033;-84
2022/05/29 06:29:55;;;;;;;6.00;5.40;;;;;;;21.90;71.76;101030.44;5080955;28;20040;-84
2022/05/29 06:32:21;;;;;;;6.63;5.88;;;;;;;21.92;71.84;101023.38;5079688;28;20033;-84
2022/05/29 06:34:47;;;;;;;6.93;6.10;;;;;;;21.66;71.58;100958.41;5073884;28;20032;-85
2022/05/29 06:37:12;;;;;;;6.35;5.75;;;;;;;21.92;71.59;101001.22;5072510;28;20032;-84
2022/05/29 06:39:38;;;;;;;5.97;5.38;;;;;;;22.04;71.66;101032.41;5082524;28;20449;-84
2022/05/29 06:42:05;;;;;;;7.68;5.65;;;;;;;22.04;71.71;101035.06;5062587;28;20020;-84
2022/05/29 06:44:31;;;;;;;8.25;6.32;;;;;;;21.89;71.72;101007.41;5069421;28;20023;-84
2022/05/29 06:46:56;;;;;;;11.25;7.03;;;;;;;22.05;71.90;101023.53;5073645;28;20029;-84
2022/05/29 06:49:22;;;;;;;7.93;7.15;;;;;;;21.98;71.85;100985.34;5071892;28;20036;-84
2022/05/29 06:51:47;;;;;;;8.90;7.93;;;;;;;21.95;71.91;100993.28;5069847;28;20020;-85
2022/05/29 06:54:13;;;;;;;12.38;7.95;;;;;;;21.96;72.10;100989.75;5065776;28;20037;-85
2022/05/29 06:56:39;;;;;;;10.38;7.90;;;;;;;21.94;71.84;100960.47;5083455;28;20029;-85
2022/05/29 06:59:06;;;;;;;9.02;7.80;;;;;;;22.05;71.96;100979.19;5070244;28;20043;-86
2022/05/29 07:07:04;;;;;;;11.73;8.73;;;;;;;22.09;72.05;100965.06;5080433;28;20067;-85
2022/05/29 07:09:36;;;;;;;12.18;8.30;;;;;;;21.98;71.95;100941.91;5053698;28;20086;-85
2022/05/29 07:12:10;;;;;;;14.48;9.07;;;;;;;22.04;72.07;100949.94;5088056;28;20057;-85
2022/05/29 07:14:38;;;;;;;13.35;8.52;;;;;;;22.11;72.15;100954.44;5096204;28;20044;-85
2022/05/29 07:17:05;;;;;;;16.42;9.25;;;;;;;22.13;72.15;100952.69;5105887;28;20016;-86
2022/05/29 07:19:30;;;;;;;14.93;8.50;;;;;;;21.75;72.36;100876.09;5093425;28;20028;-86
2022/05/29 07:21:58;;;;;;;13.60;8.23;;;;;;;21.80;72.59;100890.34;5077290;28;20025;-86
2022/05/29 07:24:28;;;;;;;16.02;9.25;;;;;;;21.88;73.81;100895.72;5083588;28;20028;-86
2022/05/29 07:26:54;;;;;;;15.65;9.15;;;;;;;22.09;74.20;100921.63;5075860;28;20031;-86
2022/05/29 07:29:23;;;;;;;19.13;10.57;;;;;;;21.84;76.04;100869.97;5066487;28;20036;-87
2022/05/29 07:31:51;;;;;;;21.50;10.75;;;;;;;21.86;76.74;100868.22;5065424;28;20067;-86
2022/05/29 07:34:16;;;;;;;26.00;11.00;;;;;;;22.12;77.10;100898.59;5056513;28;20025;-86
2022/05/29 07:36:42;;;;;;;17.92;10.85;;;;;;;21.94;78.02;100864.75;5065892;28;20025;-86
2022/05/29 07:39:09;;;;;;;;;;;;;;;22.26;78.31;100903.19;5051348;28;20478;-87
2022/05/29 07:44:18;;;;;;;19.15;10.68;;;;;;;22.12;78.91;100873.78;5070337;28;20027;-87
2022/05/29 07:46:44;;;;;;;20.30;11.27;;;;;;;22.09;79.47;100855.13;5072775;28;20029;-86
2022/05/29 07:49:09;;;;;;;;;;;;;;;22.29;79.69;100868.63;5058437;28;20032;-87
2022/05/29 07:51:35;;;;;;;21.08;11.38;;;;;;;22.11;82.02;100835.63;5083082;28;19916;-85
2022/05/29 07:54:00;;;;;;;;;;;;;;;22.24;82.34;100857.06;5069852;28;20029;-84
2022/05/29 07:56:27;;;;;;;25.48;12.82;;;;;;;22.10;82.35;100848.94;5069520;28;20580;-84
2022/05/29 07:58:52;;;;;;;;;;;;;;;22.26;82.22;100858.84;5066319;28;20042;-86
2022/05/29 08:01:19;;;;;;;21.80;11.95;;;;;;;22.24;81.87;100849.94;5069922;28;19912;-86
2022/05/29 08:03:45;;;;;;;18.52;11.27;;;;;;;22.06;81.50;100813.44;5065947;28;20032;-86
2022/05/29 08:06:11;;;;;;;;;;;;;;;22.34;81.49;100849.16;5067470;28;20028;-86
2022/05/29 08:08:40;;;;;;;18.10;10.98;;;;;;;22.14;81.07;100803.75;5068358;28;20469;-86
2022/05/29 08:11:06;;;;;;;22.20;11.77;;;;;;;22.07;80.60;100798.38;5053431;28;20131;-86
2022/05/29 08:13:32;;;;;;;22.30;11.43;;;;;;;22.10;80.66;100801.97;5063878;28;20060;-85
2022/05/29 08:15:58;;;;;;;17.63;11.18;;;;;;;22.25;80.47;100829.59;5067662;28;20028;-86
2022/05/29 08:18:25;;;;;;;20.55;11.05;;;;;;;22.38;80.37;100860.72;5070608;28;20037;-86
2022/05/29 08:20:52;;;;;;;18.77;11.20;;;;;;;22.48;79.99;100874.94;5075629;28;20024;-84
2022/05/29 08:23:18;;;;;;;20.95;10.80;;;;;;;22.45;80.01;100858.97;5065986;28;20032;-85
2022/05/29 08:31:12;;;;;;;19.55;10.73;;;;;;;22.43;79.88;100845.66;5070096;28;20481;-85
2022/05/29 08:33:39;;;;;;;18.17;10.57;;;;;;;22.24;79.22;100806.50;5069859;28;20020;-85
2022/05/29 08:36:04;;;;;;;;;;;;;;;22.54;78.71;100857.28;5082809;28;20462;-85
2022/05/29 08:38:31;;;;;;;13.20;9.63;;;;;;;22.44;78.51;100844.78;5073086;28;19947;-86
2022/05/29 08:41:02;;;;;;;14.90;9.05;;;;;;;22.44;77.88;100847.44;5076525;28;20040;-86
2022/05/29 08:43:50;;;;;;;14.30;9.15;;;;;;;22.54;77.63;100872.34;5084816;28;20031;-86
2022/05/29 08:46:24;;;;;;;14.68;8.70;;;;;;;22.55;77.46;100868.81;5071767;28;20031;-86
2022/05/29 08:48:53;;;;;;;16.83;9.80;;;;;;;22.56;77.04;100875.88;5077951;28;20040;-86
2022/05/29 08:51:40;;;;;;;13.98;9.23;;;;;;;22.54;77.06;100875.91;5080946;28;20031;-85
2022/05/29 08:54:14;;;;;;;10.57;8.63;;;;;;;22.53;77.27;100874.09;5065076;28;20039;-86
2022/05/29 08:57:06;;;;;;;11.38;8.77;;;;;;;22.55;77.09;100877.66;5067871;28;20043;-85
2022/05/29 08:59:46;;;;;;;11.32;8.65;;;;;;;22.60;76.59;100884.81;5051542;28;20107;-86
2022/05/29 09:02:33;;;;;;;13.30;8.27;;;;;;;22.61;77.31;100879.50;5061053;28;20119;-85
2022/05/29 09:05:03;;;;;;;;;;;;;;;22.59;77.64;100872.38;5068922;28;20024;-86
2022/05/29 09:07:32;;;;;;;13.73;8.30;;;;;;;22.59;77.68;100880.38;5067969;28;19943;-84
2022/05/29 09:10:05;;;;;;;13.88;8.02;;;;;;;22.67;75.74;100876.88;5085330;28;20379;-84
2022/05/29 09:12:39;;;;;;;16.25;7.95;;;;;;;22.52;78.41;100868.78;5068908;28;20020;-86
2022/05/29 09:15:09;;;;;;;12.65;7.25;;;;;;;22.47;75.16;100884.72;5062934;28;20091;-86
2022/05/29 09:17:44;;;;;;;11.52;7.07;;;;;;;22.60;74.20;100892.78;5060977;28;20031;-86
2022/05/29 09:20:21;;;;;;;10.48;6.75;;;;;;;22.55;73.53;100895.41;5061455;28;20024;-86
2022/05/29 09:22:47;;;;;;;20.77;7.18;;;;;;;22.55;73.91;100895.41;5065681;28;20029;-86
2022/05/29 09:25:22;;;;;;;8.15;7.03;;;;;;;22.59;74.60;100910.53;5066887;28;20048;-85
2022/05/29 09:27:48;;;;;;;11.05;6.78;;;;;;;22.56;74.80;100907.84;5062394;28;20037;-85
2022/05/29 09:30:15;;;;;;;8.90;6.63;;;;;;;22.59;74.95;100901.66;5059253;28;20410;-85
2022/05/29 09:32:57;;;;;;;9.80;6.88;;;;;;;22.51;74.80;100880.31;5080690;28;20456;-84
2022/05/29 09:35:38;;;;;;;9.70;6.88;;;;;;;22.67;74.77;100905.25;5068117;28;20031;-84
2022/05/29 09:38:19;;;;;;;10.93;6.57;;;;;;;22.67;74.83;100910.56;5062095;28;20545;-84
2022/05/29 09:40:57;;;;;;;11.13;6.97;;;;;;;22.56;74.82;100898.09;5053929;28;20040;-84
2022/05/29 09:43:24;;;;;;;8.80;6.60;;;;;;;22.49;74.64;100890.06;5067045;28;20074;-83
2022/05/29 09:45:51;;;;;;;8.40;6.78;;;;;;;22.69;74.76;100930.09;5068888;28;20475;-83
2022/05/29 09:51:20;;;;;;;8.18;6.22;;;;;;;22.67;74.76;100934.53;5068774;28;20130;-81
2022/05/29 09:53:53;;;;;;;10.20;6.35;;;;;;;22.66;74.51;100938.97;5069969;28;20059;-83
2022/05/29 09:56:36;;;;;;;7.82;6.05;;;;;;;22.68;74.61;100958.50;5065513;28;20116;-84
2022/05/29 09:59:31;;;;;;;8.50;6.00;;;;;;;22.70;74.51;100964.72;5072297;28;20058;-83
2022/05/29 10:02:02;;;;;;;7.93;6.22;;;;;;;22.69;74.52;100951.41;5060847;28;20051;-84
2022/05/29 10:04:35;;;;;;;8.13;6.72;;;;;;;22.67;74.71;100947.84;5066084;28;20021;-85
2022/05/29 10:07:12;;;;;;;9.02;5.80;;;;;;;22.58;74.60;100921.16;5062167;28;20024;-85
2022/05/29 10:09:56;;;;;;;7.30;5.82;;;;;;;22.69;74.61;100935.44;5067537;28;20020;-84
2022/05/29 10:12:33;;;;;;;7.25;5.85;;;;;;;22.67;74.54;100922.13;5064264;28;20036;-84
2022/05/29 10:14:59;;;;;;;9.95;6.85;;;;;;;22.54;74.44;100904.28;5075626;28;20510;-83
2022/05/29 10:17:27;;;;;;;9.13;6.53;;;;;;;22.70;74.43;100927.47;5059542;28;20111;-84
2022/05/29 10:19:53;;;;;;;7.65;6.38;;;;;;;22.68;74.36;100921.22;5074474;28;20078;-84
2022/05/29 10:22:27;;;;;;;7.20;6.28;;;;;;;22.66;74.34;100908.81;5078284;28;20024;-84
2022/05/29 10:24:54;;;;;;;8.60;6.30;;;;;;;22.70;74.52;100923.91;5086414;28;20024;-83
2022/05/29 10:27:28;;;;;;;8.88;6.10;;;;;;;22.54;74.34;100897.19;5096853;28;20031;-83
2022/05/29 10:30:09;;;;;;;7.45;6.35;;;;;;;22.71;74.32;100923.94;5072097;28;20033;-83
2022/05/29 10:32:37;;;;;;;9.00;6.72;;;;;;;22.69;74.48;100914.13;5089459;28;20020;-83
2022/05/29 10:35:27;;;;;;;6.45;5.85;;;;;;;22.71;74.43;100921.28;5072357;28;20031;-83
2022/05/29 10:37:53;;;;;;;8.02;6.28;;;;;;;22.71;74.40;100913.28;5065740;28;20409;-83
2022/05/29 10:40:33;;;;;;;8.13;5.95;;;;;;;22.71;74.45;100910.63;5069961;28;20020;-85
2022/05/29 10:43:01;;;;;;;7.30;6.20;;;;;;;22.68;74.46;100905.25;5082208;28;20016;-84
2022/05/29 10:45:34;;;;;;;7.93;6.22;;;;;;;22.65;74.33;100893.69;5057918;28;20024;-83
2022/05/29 10:48:02;;;;;;;8.63;6.60;;;;;;;22.71;74.35;100907.03;5070541;28;20048;-84
2022/05/29 10:50:43;;;;;;;7.22;6.35;;;;;;;22.71;74.36;100902.63;5066514;28;21135;-83
2022/05/29 10:53:30;;;;;;;8.15;6.47;;;;;;;22.72;74.37;100899.06;5070624;28;20021;-87
2022/05/29 10:56:00;;;;;;;;;;;;;;;22.75;74.42;100903.53;5070512;28;20051;-83
2022/05/29 10:58:59;;;;;;;7.63;6.45;;;;;;;22.73;74.28;100905.28;5067419;28;19920;-84
2022/05/29 11:04:35;;;;;;;8.85;6.40;;;;;;;22.74;74.28;100897.31;5085781;28;20027;-84
2022/05/29 11:07:04;;;;;;;7.85;6.32;;;;;;;22.74;74.39;100893.78;5072025;28;20032;-84
2022/05/29 11:09:56;;;;;;;8.57;6.68;;;;;;;22.75;74.36;100898.19;5070622;28;20596;-84
2022/05/29 11:12:38;;;;;;;7.22;6.43;;;;;;;22.66;74.37;100887.50;5072198;28;20065;-83
2022/05/29 11:15:13;;;;;;;7.25;6.15;;;;;;;22.76;74.17;100884.03;5059601;28;20025;-84
2022/05/29 11:18:30;;;;;;;8.27;6.38;;;;;;;22.80;74.16;100893.81;5090941;28;20412;-83
2022/05/29 11:21:16;;;;;;;9.65;6.97;;;;;;;22.86;73.46;100882.28;5063686;28;20047;-82
2022/05/29 11:23:48;;;;;;;9.60;7.03;;;;;;;22.79;74.02;100867.16;5082939;28;20025;-84
2022/05/29 11:26:32;;;;;;;13.02;7.47;;;;;;;22.83;72.27;100863.63;5072966;28;20031;-81
2022/05/29 11:29:36;;;;;;;13.88;7.93;;;;;;;22.77;73.01;100864.50;5063834;28;20080;-85
2022/05/29 11:32:26;;;;;;;11.13;8.05;;;;;;;22.79;73.17;100854.72;5063279;28;20031;-85
2022/05/29 11:35:37;;;;;;;9.68;7.88;;;;;;;22.79;73.26;100849.41;5060313;28;20029;-85
2022/05/29 11:38:22;;;;;;;9.98;7.47;;;;;;;22.78;73.18;100839.66;5062079;28;20047;-85
2022/05/29 11:40:56;;;;;;;13.40;8.35;;;;;;;22.64;72.65;100809.41;5062892;28;20119;-83
2022/05/29 11:43:26;;;;;;;12.23;8.82;;;;;;;22.73;72.81;100828.06;5068084;28;20124;-83
2022/05/29 11:51:48;;;;;;;16.40;8.40;;;;;;;22.85;72.99;100844.13;5072908;28;20397;-83
2022/05/29 11:54:20;;;;;;;10.63;8.23;;;;;;;22.82;73.23;100833.47;5081047;28;20031;-83
2022/05/29 11:56:52;;;;;;;14.10;8.25;;;;;;;22.84;73.13;100833.44;5071417;28;20540;-82
2022/05/29 11:59:23;;;;;;;11.32;7.80;;;;;;;22.80;72.83;100829.03;5071290;28;20043;-83
2022/05/29 12:02:00;;;;;;;16.02;8.15;;;;;;;22.79;72.98;100805.94;5062718;28;20103;-83
2022/05/29 12:04:32;;;;;;;11.48;8.18;;;;;;;22.84;73.11;100821.06;5083970;28;20017;-83
2022/05/29 12:07:05;;;;;;;12.93;8.63;;;;;;;22.78;73.25;100797.06;5061732;28;20059;-84
2022/05/29 12:09:42;;;;;;;11.93;7.85;;;;;;;22.64;73.09;100770.34;5072630;28;20112;-83
2022/05/29 12:12:15;;;;;;;12.07;8.52;;;;;;;22.77;73.04;100796.19;5078556;28;20111;-83
2022/05/29 12:14:47;;;;;;;8.98;7.68;;;;;;;22.81;73.08;100802.38;5078695;28;20041;-83
2022/05/29 12:17:34;;;;;;;10.32;8.15;;;;;;;22.90;73.08;100815.75;5070441;28;20031;-83
2022/05/29 12:20:04;;;;;;;;;;;;;;;22.91;72.90;100811.31;5069115;28;20026;-83
2022/05/29 12:22:35;;;;;;;10.13;7.70;;;;;;;22.79;72.92;100795.28;5071909;28;19913;-84